createdAt,value
2023-04-13T00:02:24.026Z,7.70
2023-04-13T00:04:51.268Z,7.70
2023-04-13T00:07:19.041Z,7.70
2023-04-13T00:09:47.508Z,7.80
2023-04-13T00:12:15.981Z,7.80
2023-04-13T00:14:44.097Z,7.70
2023-04-13T00:17:11.149Z,7.70
2023-04-13T00:19:37.961Z,7.70
2023-04-13T00:22:04.956Z,7.70
2023-04-13T00:24:33.849Z,7.80
2023-04-13T00:27:01.331Z,7.80
2023-04-13T00:29:28.105Z,7.70
2023-04-13T00:31:54.929Z,7.80
2023-04-13T00:34:21.651Z,7.80
2023-04-13T00:36:49.258Z,7.80
2023-04-13T00:39:16.330Z,7.80
2023-04-13T00:41:43.045Z,7.80
2023-04-13T00:44:09.786Z,7.80
2023-04-13T00:46:36.869Z,7.80
2023-04-13T00:49:07.199Z,7.80
2023-04-13T00:51:34.445Z,7.80
2023-04-13T00:54:01.696Z,7.80
2023-04-13T00:56:28.556Z,7.80
2023-04-13T00:58:57.790Z,7.80
2023-04-13T01:01:26.097Z,7.80
2023-04-13T01:03:53.632Z,7.80
2023-04-13T01:06:42.012Z,7.80
2023-04-13T01:09:17.715Z,7.80
2023-04-13T01:11:56.640Z,7.80
2023-04-13T01:14:40.837Z,7.80
2023-04-13T01:17:17.654Z,7.80
2023-04-13T01:20:12.212Z,7.90
2023-04-13T01:22:42.683Z,7.80
2023-04-13T01:25:28.646Z,7.90
2023-04-13T01:28:02.453Z,7.90
2023-04-13T01:30:31.577Z,7.90
2023-04-13T01:33:02.935Z,7.90
2023-04-13T01:35:30.919Z,7.90
2023-04-13T01:37:59.024Z,7.90
2023-04-13T01:40:28.480Z,7.90
2023-04-13T01:42:56.142Z,7.90
2023-04-13T01:45:26.209Z,7.90
2023-04-13T01:48:11.894Z,7.90
2023-04-13T01:50:45.977Z,7.90
2023-04-13T01:53:20.131Z,7.90
2023-04-13T01:55:51.153Z,7.90
2023-04-13T01:58:20.788Z,7.90
2023-04-13T02:00:48.236Z,7.90
2023-04-13T02:03:15.674Z,8.00
2023-04-13T02:05:42.556Z,8.00
2023-04-13T02:08:09.923Z,8.00
2023-04-13T02:10:37.850Z,8.00
2023-04-13T02:13:04.650Z,8.00
2023-04-13T02:15:34.953Z,8.00
2023-04-13T02:18:02.039Z,8.00
2023-04-13T02:20:30.706Z,8.00
2023-04-13T02:22:57.955Z,8.00
2023-04-13T02:25:25.906Z,8.00
2023-04-13T02:27:52.592Z,7.90
2023-04-13T02:30:22.152Z,7.90
2023-04-13T02:32:49.745Z,7.90
2023-04-13T02:35:16.707Z,7.90
2023-04-13T02:37:43.613Z,7.90
2023-04-13T02:40:10.536Z,7.90
2023-04-13T02:42:40.117Z,7.80
2023-04-13T02:45:14.707Z,7.80
2023-04-13T02:47:42.999Z,7.80
2023-04-13T02:50:10.065Z,7.80
2023-04-13T02:52:37.340Z,7.70
2023-04-13T02:55:05.255Z,7.70
2023-04-13T02:57:32.086Z,7.70
2023-04-13T02:59:58.880Z,7.70
2023-04-13T03:02:29.712Z,7.60
2023-04-13T03:04:56.748Z,7.60
2023-04-13T03:07:24.629Z,7.60
2023-04-13T03:09:53.097Z,7.60
2023-04-13T03:12:20.283Z,7.50
2023-04-13T03:14:47.088Z,7.50
2023-04-13T03:17:14.826Z,7.60
2023-04-13T03:19:41.985Z,7.50
2023-04-13T03:22:09.986Z,7.50
2023-04-13T03:24:37.286Z,7.60
2023-04-13T03:27:04.168Z,7.60
2023-04-13T03:29:31.236Z,7.60
2023-04-13T03:31:58.322Z,7.60
2023-04-13T03:34:25.090Z,7.60
2023-04-13T03:36:52.951Z,7.60
2023-04-13T03:39:19.853Z,7.50
2023-04-13T03:41:47.778Z,7.50
2023-04-13T03:44:14.670Z,7.50
2023-04-13T03:46:41.908Z,7.50
2023-04-13T03:49:10.853Z,7.40
2023-04-13T03:51:37.729Z,7.40
2023-04-13T03:54:04.903Z,7.40
2023-04-13T03:56:31.674Z,7.40
2023-04-13T03:58:59.162Z,7.40
2023-04-13T04:01:27.143Z,7.40
2023-04-13T04:03:57.009Z,7.40
2023-04-13T04:06:24.536Z,7.40
2023-04-13T04:08:51.496Z,7.40
2023-04-13T04:11:21.132Z,7.40
2023-04-13T04:13:48.201Z,7.50
2023-04-13T04:16:15.456Z,7.40
2023-04-13T04:18:43.564Z,7.40
2023-04-13T04:21:11.286Z,7.50
2023-04-13T04:23:39.937Z,7.50
2023-04-13T04:26:07.650Z,7.40
2023-04-13T04:28:40.678Z,7.40
2023-04-13T04:31:10.571Z,7.40
2023-04-13T04:33:41.054Z,7.40
2023-04-13T04:36:14.294Z,7.40
2023-04-13T04:38:41.536Z,7.50
2023-04-13T04:41:14.008Z,7.50
2023-04-13T04:43:41.136Z,7.50
2023-04-13T04:46:08.929Z,7.50
2023-04-13T04:48:37.568Z,7.50
2023-04-13T04:51:04.424Z,7.60
2023-04-13T04:53:31.282Z,7.60
2023-04-13T04:55:58.310Z,7.60
2023-04-13T04:58:25.352Z,7.70
2023-04-13T05:00:54.362Z,7.70
2023-04-13T05:03:21.176Z,7.70
2023-04-13T05:05:48.014Z,7.70
2023-04-13T05:08:15.057Z,7.70
2023-04-13T05:10:46.262Z,7.80
2023-04-13T05:13:16.223Z,7.80
2023-04-13T05:15:46.045Z,7.80
2023-04-13T05:18:15.526Z,7.80
2023-04-13T05:20:42.450Z,7.80
2023-04-13T05:23:12.499Z,7.80
2023-04-13T05:25:39.819Z,7.90
2023-04-13T05:28:06.624Z,7.90
2023-04-13T05:30:34.142Z,7.90
2023-04-13T05:33:05.631Z,7.90
2023-04-13T05:35:32.837Z,8.00
2023-04-13T05:38:00.889Z,8.00
2023-04-13T05:40:28.982Z,8.00
2023-04-13T05:42:56.507Z,8.00
2023-04-13T05:45:24.361Z,8.00
2023-04-13T05:47:54.803Z,8.00
2023-04-13T05:50:21.604Z,8.00
2023-04-13T05:52:48.402Z,8.00
2023-04-13T05:55:21.926Z,8.10
2023-04-13T05:57:48.658Z,8.10
2023-04-13T06:00:21.551Z,8.10
2023-04-13T06:02:51.621Z,8.10
2023-04-13T06:05:18.790Z,8.10
2023-04-13T06:07:46.458Z,8.10
2023-04-13T06:10:16.703Z,8.10
2023-04-13T06:12:43.720Z,8.10
2023-04-13T06:15:11.474Z,8.10
2023-04-13T06:17:38.266Z,8.10
2023-04-13T06:20:07.224Z,8.10
2023-04-13T06:22:34.118Z,8.10
2023-04-13T06:25:01.363Z,8.20
2023-04-13T06:27:28.276Z,8.20
2023-04-13T06:29:56.832Z,8.20
2023-04-13T06:32:23.603Z,8.20
2023-04-13T06:34:50.659Z,8.30
2023-04-13T06:37:17.966Z,8.30
2023-04-13T06:39:44.739Z,8.20
2023-04-13T06:42:11.482Z,8.20
2023-04-13T06:44:38.182Z,8.20
2023-04-13T06:47:05.840Z,8.20
2023-04-13T06:49:34.126Z,8.20
2023-04-13T06:52:00.861Z,8.20
2023-04-13T06:54:27.606Z,8.20
2023-04-13T06:56:56.389Z,8.10
2023-04-13T06:59:23.245Z,8.20
2023-04-13T07:01:50.091Z,8.20
2023-04-13T07:04:17.067Z,8.20
2023-04-13T07:06:43.976Z,8.20
2023-04-13T07:09:10.734Z,8.20
2023-04-13T07:11:37.587Z,8.30
2023-04-13T07:14:04.334Z,8.30
2023-04-13T07:16:31.150Z,8.40
2023-04-13T07:19:00.964Z,8.40
2023-04-13T07:21:27.897Z,8.50
2023-04-13T07:23:54.694Z,8.60
2023-04-13T07:26:21.493Z,8.70
2023-04-13T07:28:48.281Z,8.80
2023-04-13T07:31:18.002Z,8.90
2023-04-13T07:33:44.802Z,9.00
2023-04-13T07:36:11.681Z,9.10
2023-04-13T07:38:38.455Z,9.10
2023-04-13T07:41:05.419Z,9.10
2023-04-13T07:43:32.289Z,9.20
2023-04-13T07:45:59.056Z,9.20
2023-04-13T07:48:28.713Z,9.30
2023-04-13T07:50:55.463Z,9.30
2023-04-13T07:53:22.166Z,9.40
2023-04-13T07:55:48.905Z,9.40
2023-04-13T07:58:15.641Z,9.40
2023-04-13T08:00:45.483Z,9.50
2023-04-13T08:03:12.350Z,9.60
2023-04-13T08:05:39.088Z,9.60
2023-04-13T08:08:05.911Z,9.70
2023-04-13T08:10:32.919Z,9.80
2023-04-13T08:13:00.291Z,9.80
2023-04-13T08:15:27.304Z,9.80
2023-04-13T08:17:54.184Z,9.80
2023-04-13T08:20:21.173Z,9.90
2023-04-13T08:22:47.983Z,9.90
2023-04-13T08:25:15.620Z,9.80
2023-04-13T08:27:44.782Z,9.70
2023-04-13T08:30:12.635Z,9.60
2023-04-13T08:32:39.509Z,9.50
2023-04-13T08:35:07.204Z,9.40
2023-04-13T08:37:34.791Z,9.40
2023-04-13T08:40:02.185Z,9.30
2023-04-13T08:42:30.423Z,9.40
2023-04-13T08:45:01.102Z,9.40
2023-04-13T08:47:31.226Z,9.40
2023-04-13T08:50:00.136Z,9.50
2023-04-13T08:52:28.466Z,9.60
2023-04-13T08:54:57.467Z,9.70
2023-04-13T08:57:24.515Z,10.00
2023-04-13T08:59:52.832Z,10.30
2023-04-13T09:02:26.477Z,10.40
2023-04-13T09:04:55.913Z,10.60
2023-04-13T09:07:35.220Z,10.70
2023-04-13T09:10:05.966Z,10.70
2023-04-13T09:12:32.828Z,10.70
2023-04-13T09:14:59.562Z,10.80
2023-04-13T09:17:28.516Z,10.80
2023-04-13T09:19:57.316Z,10.90
2023-04-13T09:22:25.994Z,11.00
2023-04-13T09:24:52.859Z,11.00
2023-04-13T09:27:24.022Z,11.00
2023-04-13T09:29:55.555Z,11.00
2023-04-13T09:32:29.405Z,10.90
2023-04-13T09:35:08.443Z,10.90
2023-04-13T09:37:36.871Z,10.90
2023-04-13T09:40:18.709Z,11.00
2023-04-13T09:43:07.905Z,11.00
2023-04-13T09:45:44.225Z,11.00
2023-04-13T09:48:21.645Z,11.00
2023-04-13T09:51:01.464Z,11.10
2023-04-13T09:53:43.110Z,11.30
2023-04-13T09:56:13.845Z,11.40
2023-04-13T09:58:44.991Z,11.40
2023-04-13T10:01:15.046Z,11.30
2023-04-13T10:03:43.463Z,11.10
2023-04-13T10:06:10.464Z,11.10
2023-04-13T10:08:42.673Z,11.30
2023-04-13T10:11:15.172Z,11.60
2023-04-13T10:13:53.410Z,11.80
2023-04-13T10:16:32.172Z,11.90
2023-04-13T10:19:07.878Z,11.80
2023-04-13T10:21:40.667Z,11.80
2023-04-13T10:24:12.518Z,11.70
2023-04-13T10:26:41.271Z,11.60
2023-04-13T10:29:10.117Z,11.50
2023-04-13T10:31:47.003Z,11.50
2023-04-13T10:34:28.082Z,11.50
2023-04-13T10:36:58.348Z,11.40
2023-04-13T10:39:27.499Z,11.40
2023-04-13T10:42:05.927Z,11.40
2023-04-13T10:44:46.297Z,11.40
2023-04-13T10:47:15.252Z,11.50
2023-04-13T10:49:48.112Z,11.60
2023-04-13T10:52:15.881Z,11.70
2023-04-13T10:54:44.458Z,11.70
2023-04-13T10:57:12.302Z,11.80
2023-04-13T10:59:58.901Z,11.80
2023-04-13T11:02:34.171Z,11.80
2023-04-13T11:05:01.471Z,11.80
2023-04-13T11:07:28.721Z,11.80
2023-04-13T11:12:28.237Z,11.70
2023-04-13T11:14:55.128Z,11.70
2023-04-13T11:17:21.993Z,11.70
2023-04-13T11:19:50.912Z,11.70
2023-04-13T11:22:27.669Z,11.70
2023-04-13T11:25:06.695Z,11.70
2023-04-13T11:27:33.426Z,11.70
2023-04-13T11:30:05.912Z,11.70
2023-04-13T11:32:36.366Z,11.70
2023-04-13T11:35:14.712Z,11.80
2023-04-13T11:37:51.020Z,11.80
2023-04-13T11:40:25.738Z,11.80
2023-04-13T11:42:58.245Z,11.90
2023-04-13T11:45:30.970Z,12.00
2023-04-13T11:47:58.217Z,12.00
2023-04-13T11:50:26.117Z,12.00
2023-04-13T11:52:56.563Z,12.10
2023-04-13T11:55:24.994Z,12.20
2023-04-13T11:57:55.755Z,12.30
2023-04-13T12:00:26.142Z,12.40
2023-04-13T12:05:28.733Z,12.70
2023-04-13T12:07:57.514Z,12.90
2023-04-13T12:10:40.338Z,13.20
2023-04-13T12:15:58.154Z,13.90
2023-04-13T12:18:37.437Z,14.10
2023-04-13T12:21:05.933Z,14.20
2023-04-13T12:23:35.901Z,14.20
2023-04-13T12:26:32.204Z,14.30
2023-04-13T12:28:56.972Z,14.40
2023-04-13T12:31:24.024Z,14.50
2023-04-13T12:33:51.614Z,14.70
2023-04-13T12:36:18.734Z,14.70
2023-04-13T12:38:45.817Z,14.80
2023-04-13T12:41:12.726Z,15.00
2023-04-13T12:43:39.568Z,15.10
2023-04-13T12:46:06.296Z,15.20
2023-04-13T12:48:33.132Z,15.30
2023-04-13T12:50:59.861Z,15.40
2023-04-13T12:53:26.659Z,15.50
2023-04-13T12:55:53.349Z,15.60
2023-04-13T12:58:20.166Z,15.60
2023-04-13T13:00:46.966Z,15.70
2023-04-13T13:03:14.770Z,15.80
2023-04-13T13:05:42.424Z,15.90
2023-04-13T13:08:09.735Z,16.00
2023-04-13T13:10:37.356Z,16.00
2023-04-13T13:13:04.796Z,16.00
2023-04-13T13:15:32.498Z,16.10
2023-04-13T13:18:04.066Z,16.10
2023-04-13T13:20:33.598Z,16.10
2023-04-13T13:23:03.788Z,16.30
2023-04-13T13:25:30.601Z,16.50
2023-04-13T13:30:27.749Z,16.60
2023-04-13T13:32:54.590Z,16.70
2023-04-13T13:35:21.828Z,16.70
2023-04-13T13:37:48.737Z,16.80
2023-04-13T13:40:15.626Z,16.90
2023-04-13T13:45:12.142Z,16.90
2023-04-13T13:47:38.979Z,16.80
2023-04-13T13:50:06.925Z,16.70
2023-04-13T13:52:33.786Z,16.80
2023-04-13T13:55:00.829Z,16.80
2023-04-13T13:57:27.739Z,16.90
2023-04-13T13:59:54.438Z,16.90
2023-04-13T14:02:21.305Z,17.00
2023-04-13T14:04:48.124Z,17.10
2023-04-13T14:07:15.488Z,17.20
2023-04-13T14:09:42.235Z,17.20
2023-04-13T14:12:09.194Z,17.20
2023-04-13T14:14:36.003Z,17.20
2023-04-13T14:17:02.762Z,17.10
2023-04-13T14:19:29.571Z,17.10
2023-04-13T14:21:56.853Z,17.10
2023-04-13T14:24:26.858Z,17.00
2023-04-13T14:26:53.995Z,17.00
2023-04-13T14:29:21.155Z,17.10
2023-04-13T14:31:48.123Z,17.20
2023-04-13T14:34:23.492Z,17.20
2023-04-13T14:36:53.735Z,17.30
2023-04-13T14:39:21.172Z,17.20
2023-04-13T14:41:47.856Z,17.20
2023-04-13T14:44:14.653Z,17.30
2023-04-13T14:46:41.577Z,17.30
2023-04-13T14:49:08.313Z,17.30
2023-04-13T14:51:35.061Z,17.30
2023-04-13T14:54:09.005Z,17.20
2023-04-13T14:56:35.683Z,17.00
2023-04-13T14:59:03.257Z,16.80
2023-04-13T15:01:33.911Z,16.60
2023-04-13T15:04:00.928Z,16.50
2023-04-13T15:06:27.870Z,16.50
2023-04-13T15:08:55.612Z,16.50
2023-04-13T15:11:22.757Z,16.60
2023-04-13T15:13:50.188Z,16.60
2023-04-13T15:16:17.189Z,16.60
2023-04-13T15:18:44.078Z,16.70
2023-04-13T15:21:10.992Z,16.70
2023-04-13T15:23:37.769Z,16.60
2023-04-13T15:26:04.792Z,16.60
2023-04-13T15:28:31.575Z,16.40
2023-04-13T15:30:58.442Z,16.40
2023-04-13T15:33:28.336Z,16.40
2023-04-13T15:35:58.985Z,16.40
2023-04-13T15:38:25.975Z,16.40
2023-04-13T15:40:52.871Z,16.50
2023-04-13T15:43:19.745Z,16.60
2023-04-13T15:45:46.993Z,16.60
2023-04-13T15:48:14.692Z,16.60
2023-04-13T15:50:42.069Z,16.60
2023-04-13T15:53:08.922Z,16.60
2023-04-13T15:55:35.761Z,16.60
2023-04-13T15:58:03.910Z,16.60
2023-04-13T16:00:31.618Z,16.70
2023-04-13T16:02:58.561Z,16.70
2023-04-13T16:05:25.500Z,16.70
2023-04-13T16:07:53.734Z,16.80
2023-04-13T16:10:20.853Z,16.70
2023-04-13T16:12:50.284Z,16.80
2023-04-13T16:15:19.248Z,16.80
2023-04-13T16:17:47.873Z,16.70
2023-04-13T16:20:14.907Z,16.60
2023-04-13T16:22:45.861Z,16.60
2023-04-13T16:25:15.319Z,16.60
2023-04-13T16:27:42.928Z,16.50
2023-04-13T16:30:14.079Z,16.50
2023-04-13T16:32:42.689Z,16.50
2023-04-13T16:35:09.894Z,16.40
2023-04-13T16:37:36.771Z,16.40
2023-04-13T16:40:07.359Z,16.30
2023-04-13T16:42:34.100Z,16.30
2023-04-13T16:45:00.928Z,16.20
2023-04-13T16:47:27.827Z,16.10
2023-04-13T16:49:54.601Z,16.00
2023-04-13T16:52:21.328Z,16.00
2023-04-13T16:54:48.228Z,15.80
2023-04-13T16:57:14.995Z,15.70
2023-04-13T16:59:45.111Z,15.70
2023-04-13T17:02:24.686Z,15.60
2023-04-13T17:04:57.368Z,15.50
2023-04-13T17:07:26.697Z,15.40
2023-04-13T17:09:53.755Z,15.40
2023-04-13T17:12:22.541Z,15.30
2023-04-13T17:14:49.788Z,15.20
2023-04-13T17:17:16.737Z,15.10
2023-04-13T17:19:43.622Z,15.00
2023-04-13T17:22:13.664Z,14.90
2023-04-13T17:24:40.581Z,14.80
2023-04-13T17:27:07.458Z,14.70
2023-04-13T17:29:37.893Z,14.70
2023-04-13T17:32:05.422Z,14.60
2023-04-13T17:34:33.586Z,14.50
2023-04-13T17:37:02.013Z,14.40
2023-04-13T17:39:29.174Z,14.30
2023-04-13T17:41:56.495Z,14.20
2023-04-13T17:44:23.276Z,14.10
2023-04-13T17:46:50.788Z,14.00
2023-04-13T17:49:17.514Z,13.90
2023-04-13T17:51:47.185Z,13.80
2023-04-13T17:54:13.900Z,13.80
2023-04-13T17:56:40.611Z,13.70
2023-04-13T17:59:07.427Z,13.70
2023-04-13T18:01:37.146Z,13.60
2023-04-13T18:04:04.101Z,13.60
2023-04-13T18:06:33.633Z,13.50
2023-04-13T18:09:03.742Z,13.50
2023-04-13T18:11:33.267Z,13.50
2023-04-13T18:14:02.427Z,13.40
2023-04-13T18:16:31.746Z,13.40
2023-04-13T18:18:58.922Z,13.40
2023-04-13T18:21:26.041Z,13.40
2023-04-13T18:23:52.814Z,13.40
2023-04-13T18:26:23.100Z,13.40
2023-04-13T18:28:49.875Z,13.40
2023-04-13T18:31:16.654Z,13.40
2023-04-13T18:33:44.412Z,13.40
2023-04-13T18:36:16.198Z,13.30
2023-04-13T18:38:44.070Z,13.30
2023-04-13T18:41:11.279Z,13.30
2023-04-13T18:43:38.398Z,13.20
2023-04-13T18:46:05.252Z,13.20
2023-04-13T18:48:31.977Z,13.10
2023-04-13T18:50:59.461Z,13.10
2023-04-13T18:53:26.208Z,13.00
2023-04-13T18:55:52.981Z,13.00
2023-04-13T18:58:20.483Z,12.90
2023-04-13T19:00:47.768Z,12.90
2023-04-13T19:03:15.045Z,12.80
2023-04-13T19:05:41.858Z,12.80
2023-04-13T19:08:12.431Z,12.70
2023-04-13T19:10:39.178Z,12.60
2023-04-13T19:13:06.245Z,12.50
2023-04-13T19:15:33.169Z,12.30
2023-04-13T19:18:01.221Z,12.10
2023-04-13T19:20:28.199Z,11.90
2023-04-13T19:22:54.883Z,11.70
2023-04-13T19:25:21.648Z,11.60
2023-04-13T19:27:50.652Z,11.50
2023-04-13T19:30:18.963Z,11.40
2023-04-13T19:32:49.336Z,11.30
2023-04-13T19:35:16.756Z,11.20
2023-04-13T19:37:43.543Z,11.20
2023-04-13T19:40:13.775Z,11.10
2023-04-13T19:42:44.993Z,11.00
2023-04-13T19:45:13.551Z,10.90
2023-04-13T19:47:40.980Z,10.90
2023-04-13T19:50:09.988Z,10.80
2023-04-13T19:52:37.660Z,10.80
2023-04-13T19:55:04.652Z,10.70
2023-04-13T19:57:31.351Z,10.60
2023-04-13T20:00:01.164Z,10.60
2023-04-13T20:02:28.472Z,10.60
2023-04-13T20:04:57.669Z,10.50
2023-04-13T20:07:24.408Z,10.50
2023-04-13T20:09:51.292Z,10.50
2023-04-13T20:12:17.985Z,10.50
2023-04-13T20:14:46.284Z,10.50
2023-04-13T20:17:16.277Z,10.50
2023-04-13T20:19:43.018Z,10.40
2023-04-13T20:22:10.206Z,10.40
2023-04-13T20:24:37.014Z,10.40
2023-04-13T20:27:03.811Z,10.30
2023-04-13T20:29:31.164Z,10.30
2023-04-13T20:31:58.799Z,10.20
2023-04-13T20:34:27.985Z,10.20
2023-04-13T20:36:56.405Z,10.10
2023-04-13T20:39:25.740Z,10.10
2023-04-13T20:41:55.909Z,10.00
2023-04-13T20:44:23.962Z,9.90
2023-04-13T20:46:54.639Z,9.90
2023-04-13T20:49:25.591Z,9.80
2023-04-13T20:51:56.458Z,9.70
2023-04-13T20:54:23.486Z,9.60
2023-04-13T20:56:50.375Z,9.60
2023-04-13T20:59:18.183Z,9.50
2023-04-13T21:01:45.646Z,9.40
2023-04-13T21:04:12.737Z,9.40
2023-04-13T21:06:42.728Z,9.30
2023-04-13T21:09:09.509Z,9.30
2023-04-13T21:11:36.318Z,9.20
2023-04-13T21:14:04.027Z,9.20
2023-04-13T21:16:31.087Z,9.10
2023-04-13T21:18:57.858Z,9.10
2023-04-13T21:21:28.219Z,9.10
2023-04-13T21:23:54.950Z,9.00
2023-04-13T21:26:21.841Z,9.00
2023-04-13T21:28:48.587Z,9.00
2023-04-13T21:31:18.695Z,8.90
2023-04-13T21:33:45.731Z,8.90
2023-04-13T21:38:42.303Z,8.80
2023-04-13T21:41:16.353Z,8.80
2023-04-13T21:43:46.602Z,8.70
2023-04-13T21:46:14.823Z,8.70
2023-04-13T21:48:41.744Z,8.60
2023-04-13T21:51:09.650Z,8.60
2023-04-13T21:53:37.130Z,8.60
2023-04-13T21:56:04.958Z,8.50
2023-04-13T21:58:42.893Z,8.50
2023-04-13T22:01:13.664Z,8.50
2023-04-13T22:03:42.915Z,8.40
2023-04-13T22:06:11.416Z,8.40
2023-04-13T22:08:38.498Z,8.40
2023-04-13T22:11:08.802Z,8.30
2023-04-13T22:13:35.676Z,8.30
2023-04-13T22:16:02.480Z,8.30
2023-04-13T22:18:29.158Z,8.20
2023-04-13T22:20:57.752Z,8.20
2023-04-13T22:23:24.490Z,8.10
2023-04-13T22:26:00.958Z,8.10
2023-04-13T22:28:31.896Z,8.00
2023-04-13T22:31:05.252Z,8.00
2023-04-13T22:33:36.136Z,7.90
2023-04-13T22:36:04.572Z,7.90
2023-04-13T22:38:31.543Z,7.80
2023-04-13T22:40:58.526Z,7.80
2023-04-13T22:43:25.326Z,7.70
2023-04-13T22:46:02.107Z,7.70
2023-04-13T22:48:29.746Z,7.70
2023-04-13T22:51:03.490Z,7.70
2023-04-13T22:53:30.504Z,7.60
2023-04-13T22:55:57.259Z,7.60
2023-04-13T22:58:24.145Z,7.60
2023-04-13T23:00:51.045Z,7.50
2023-04-13T23:03:18.185Z,7.50
2023-04-13T23:05:45.120Z,7.50
2023-04-13T23:08:11.904Z,7.40
2023-04-13T23:10:38.643Z,7.40
2023-04-13T23:13:05.594Z,7.40
2023-04-13T23:15:32.292Z,7.30
2023-04-13T23:18:01.589Z,7.30
2023-04-13T23:20:28.744Z,7.30
2023-04-13T23:22:58.405Z,7.30
2023-04-13T23:25:25.259Z,7.20
2023-04-13T23:27:52.003Z,7.20
2023-04-13T23:30:18.759Z,7.20
2023-04-13T23:32:45.465Z,7.20
2023-04-13T23:35:21.100Z,7.20
2023-04-13T23:37:47.846Z,7.20
2023-04-13T23:40:14.776Z,7.10
2023-04-13T23:42:41.702Z,7.10
2023-04-13T23:45:08.931Z,7.10
2023-04-13T23:47:36.021Z,7.00
2023-04-13T23:50:02.849Z,7.00
2023-04-13T23:52:29.532Z,7.00
2023-04-13T23:54:57.120Z,6.90
2023-04-13T23:57:23.934Z,6.90
2023-04-13T23:59:56.537Z,6.80
